CCM48BZ LFPO-LFKF
Flight info
| Callsign | CCM48BZ |
|---|---|
| Flight time | 1h 30m |
| Altitude | 35000 |
| Route | LATRA DCT LAMUT DCT UTUVA DCT TITVA DCT NOQAS DCT OTROT DCT RETNO DCT KOLON DCT OMARD M623 VAREK |
| Aircraft | A320/M-SDE3FGHIRWY/LB1 |
Departure
| Time | 2026-04-12 11:26 |
|---|---|
| Airport | Paris-Orly Airport (LFPO) |
Arrival
| Time | 2026-04-12 12:56 |
|---|---|
| Airport | Figari Sud-Corse Airport (LFKF) |
| Time | Latitude | Longitude | Altitude | Speed | Heading |
|---|---|---|---|---|---|
| 2026-04-12 10:57 | 48.72566 | 2.36078 | 303 ft | 0 kts | 357° |
| 2026-04-12 11:17 | 48.72560 | 2.36079 | 294 ft | 4 kts | 357° |
| 2026-04-12 11:17 | 48.72533 | 2.36080 | 290 ft | 4 kts | 357° |
| 2026-04-12 11:17 | 48.72507 | 2.36084 | 292 ft | 4 kts | 340° |
| 2026-04-12 11:18 | 48.72489 | 2.36105 | 296 ft | 4 kts | 283° |
| 2026-04-12 11:18 | 48.72489 | 2.36134 | 295 ft | 3 kts | 254° |
| 2026-04-12 11:18 | 48.72493 | 2.36158 | 295 ft | 0 kts | 254° |
| 2026-04-12 11:20 | 48.72493 | 2.36155 | 295 ft | 3 kts | 254° |
| 2026-04-12 11:21 | 48.72475 | 2.36053 | 295 ft | 12 kts | 257° |
| 2026-04-12 11:21 | 48.72472 | 2.35921 | 291 ft | 14 kts | 275° |
| 2026-04-12 11:21 | 48.72479 | 2.35775 | 291 ft | 14 kts | 268° |
| 2026-04-12 11:21 | 48.72454 | 2.35634 | 294 ft | 9 kts | 259° |
| 2026-04-12 11:22 | 48.72494 | 2.35585 | 291 ft | 7 kts | 345° |
| 2026-04-12 11:22 | 48.72541 | 2.35567 | 291 ft | 6 kts | 343° |
| 2026-04-12 11:22 | 48.72608 | 2.35539 | 293 ft | 15 kts | 346° |
| 2026-04-12 11:22 | 48.72722 | 2.35489 | 291 ft | 16 kts | 344° |
| 2026-04-12 11:23 | 48.72826 | 2.35445 | 293 ft | 15 kts | 344° |
| 2026-04-12 11:23 | 48.72896 | 2.35385 | 292 ft | 10 kts | 295° |
| 2026-04-12 11:23 | 48.72951 | 2.35357 | 291 ft | 13 kts | 19° |
| 2026-04-12 11:23 | 48.73038 | 2.35424 | 295 ft | 14 kts | 44° |
| 2026-04-12 11:24 | 48.73096 | 2.35546 | 295 ft | 14 kts | 54° |
| 2026-04-12 11:24 | 48.73186 | 2.35636 | 294 ft | 19 kts | 44° |
| 2026-04-12 11:24 | 48.73260 | 2.35834 | 291 ft | 24 kts | 61° |
| 2026-04-12 11:24 | 48.73338 | 2.36046 | 292 ft | 14 kts | 52° |
| 2026-04-12 11:25 | 48.73424 | 2.36102 | 291 ft | 15 kts | 4° |
| 2026-04-12 11:25 | 48.73524 | 2.36057 | 293 ft | 9 kts | 334° |
| 2026-04-12 11:25 | 48.73513 | 2.35977 | 296 ft | 12 kts | 239° |
| 2026-04-12 11:25 | 48.73389 | 2.35627 | 290 ft | 73 kts | 242° |
| 2026-04-12 11:26 | 48.73047 | 2.34659 | 291 ft | 133 kts | 242° |
| 2026-04-12 11:26 | 48.72541 | 2.33241 | 542 ft | 158 kts | 239° |
| 2026-04-12 11:26 | 48.72025 | 2.31788 | 1315 ft | 158 kts | 238° |
| 2026-04-12 11:26 | 48.71450 | 2.30374 | 2182 ft | 159 kts | 235° |
| 2026-04-12 11:27 | 48.70836 | 2.28976 | 2971 ft | 160 kts | 236° |
| 2026-04-12 11:27 | 48.70234 | 2.27582 | 3686 ft | 164 kts | 236° |
| 2026-04-12 11:27 | 48.69574 | 2.26035 | 4078 ft | 186 kts | 237° |
| 2026-04-12 11:27 | 48.68823 | 2.24281 | 4486 ft | 212 kts | 237° |
| 2026-04-12 11:28 | 48.67977 | 2.22297 | 5067 ft | 236 kts | 237° |
| 2026-04-12 11:28 | 48.67041 | 2.20128 | 5810 ft | 252 kts | 234° |
| 2026-04-12 11:28 | 48.65656 | 2.18456 | 6702 ft | 264 kts | 201° |
| 2026-04-12 11:28 | 48.63823 | 2.18302 | 7715 ft | 272 kts | 167° |
| 2026-04-12 11:29 | 48.62069 | 2.19446 | 8798 ft | 280 kts | 153° |
| 2026-04-12 11:29 | 48.60453 | 2.21131 | 9792 ft | 283 kts | 147° |
| 2026-04-12 11:29 | 48.58809 | 2.22833 | 10421 ft | 296 kts | 149° |
| 2026-04-12 11:29 | 48.56998 | 2.24538 | 10667 ft | 319 kts | 152° |
| 2026-04-12 11:30 | 48.54996 | 2.26253 | 10887 ft | 342 kts | 154° |
| 2026-04-12 11:30 | 48.52842 | 2.27953 | 11318 ft | 355 kts | 156° |
| 2026-04-12 11:30 | 48.50616 | 2.29628 | 12037 ft | 359 kts | 157° |
| 2026-04-12 11:30 | 48.48393 | 2.31250 | 12777 ft | 361 kts | 159° |
| 2026-04-12 11:31 | 48.46027 | 2.32516 | 13504 ft | 362 kts | 166° |
| 2026-04-12 11:31 | 48.43615 | 2.33653 | 14206 ft | 365 kts | 166° |
| 2026-04-12 11:31 | 48.41186 | 2.34818 | 14850 ft | 367 kts | 166° |
| 2026-04-12 11:31 | 48.38747 | 2.35998 | 15499 ft | 370 kts | 166° |
| 2026-04-12 11:32 | 48.36286 | 2.37189 | 16138 ft | 373 kts | 166° |
| 2026-04-12 11:32 | 48.33809 | 2.38386 | 16789 ft | 375 kts | 166° |
| 2026-04-12 11:32 | 48.31314 | 2.39590 | 17417 ft | 378 kts | 167° |
| 2026-04-12 11:32 | 48.28806 | 2.40799 | 18071 ft | 380 kts | 167° |
| 2026-04-12 11:33 | 48.26279 | 2.42057 | 18642 ft | 384 kts | 166° |
| 2026-04-12 11:33 | 48.23752 | 2.43384 | 19198 ft | 385 kts | 166° |
| 2026-04-12 11:33 | 48.21226 | 2.44748 | 19761 ft | 387 kts | 165° |
| 2026-04-12 11:33 | 48.18730 | 2.46112 | 20298 ft | 388 kts | 165° |
| 2026-04-12 11:34 | 48.16191 | 2.47489 | 20842 ft | 388 kts | 166° |
| 2026-04-12 11:34 | 48.13645 | 2.48854 | 21378 ft | 389 kts | 166° |
| 2026-04-12 11:34 | 48.11093 | 2.50209 | 21909 ft | 390 kts | 166° |
| 2026-04-12 11:34 | 48.08534 | 2.51561 | 22407 ft | 390 kts | 166° |
| 2026-04-12 11:35 | 48.05968 | 2.52889 | 22901 ft | 391 kts | 167° |
| 2026-04-12 11:35 | 48.03390 | 2.54177 | 23371 ft | 391 kts | 168° |
| 2026-04-12 11:35 | 48.00799 | 2.55442 | 23771 ft | 392 kts | 168° |
| 2026-04-12 11:35 | 47.98205 | 2.56699 | 24134 ft | 393 kts | 168° |
| 2026-04-12 11:36 | 47.95598 | 2.57962 | 24497 ft | 394 kts | 168° |
| 2026-04-12 11:36 | 47.92987 | 2.59233 | 24845 ft | 396 kts | 168° |
| 2026-04-12 11:36 | 47.90372 | 2.60510 | 25188 ft | 397 kts | 168° |
| 2026-04-12 11:36 | 47.87777 | 2.61778 | 25512 ft | 398 kts | 168° |
| 2026-04-12 11:37 | 47.85142 | 2.63067 | 25835 ft | 399 kts | 168° |
| 2026-04-12 11:37 | 47.82503 | 2.64362 | 26144 ft | 401 kts | 168° |
| 2026-04-12 11:37 | 47.79843 | 2.65666 | 26442 ft | 402 kts | 168° |
| 2026-04-12 11:37 | 47.77184 | 2.66967 | 26739 ft | 403 kts | 168° |
| 2026-04-12 11:38 | 47.74515 | 2.68270 | 26950 ft | 405 kts | 168° |
| 2026-04-12 11:38 | 47.71832 | 2.69577 | 27200 ft | 407 kts | 168° |
| 2026-04-12 11:38 | 47.69135 | 2.70891 | 27462 ft | 408 kts | 168° |
| 2026-04-12 11:38 | 47.66437 | 2.72207 | 27705 ft | 409 kts | 168° |
| 2026-04-12 11:39 | 47.63731 | 2.73524 | 27952 ft | 410 kts | 168° |
| 2026-04-12 11:39 | 47.61024 | 2.74841 | 28281 ft | 408 kts | 168° |
| 2026-04-12 11:39 | 47.58367 | 2.76131 | 28606 ft | 407 kts | 168° |
| 2026-04-12 11:39 | 47.55683 | 2.77431 | 28934 ft | 406 kts | 168° |
| 2026-04-12 11:40 | 47.52999 | 2.78731 | 29240 ft | 405 kts | 168° |
| 2026-04-12 11:40 | 47.50326 | 2.80024 | 29568 ft | 404 kts | 168° |
| 2026-04-12 11:40 | 47.47662 | 2.81308 | 29908 ft | 402 kts | 168° |
| 2026-04-12 11:40 | 47.45003 | 2.82586 | 30232 ft | 401 kts | 169° |
| 2026-04-12 11:41 | 47.42357 | 2.83858 | 30524 ft | 400 kts | 169° |
| 2026-04-12 11:41 | 47.39718 | 2.85130 | 30810 ft | 398 kts | 169° |
| 2026-04-12 11:41 | 47.37089 | 2.86399 | 31094 ft | 397 kts | 169° |
| 2026-04-12 11:41 | 47.34467 | 2.87662 | 31356 ft | 396 kts | 169° |
| 2026-04-12 11:42 | 47.31879 | 2.88903 | 31621 ft | 396 kts | 169° |
| 2026-04-12 11:42 | 47.29262 | 2.90155 | 31857 ft | 396 kts | 168° |
| 2026-04-12 11:42 | 47.26637 | 2.91409 | 32062 ft | 397 kts | 168° |
| 2026-04-12 11:43 | 47.21389 | 2.93919 | 32582 ft | 396 kts | 168° |
| 2026-04-12 11:43 | 47.18765 | 2.95171 | 32885 ft | 395 kts | 169° |
| 2026-04-12 11:43 | 47.16154 | 2.96414 | 33169 ft | 394 kts | 169° |
| 2026-04-12 11:43 | 47.13552 | 2.97651 | 33448 ft | 393 kts | 168° |
| 2026-04-12 11:44 | 47.10951 | 2.98879 | 33732 ft | 392 kts | 169° |
| 2026-04-12 11:44 | 47.08349 | 3.00022 | 34018 ft | 390 kts | 170° |
| 2026-04-12 11:44 | 47.05773 | 3.01084 | 34270 ft | 389 kts | 171° |
| 2026-04-12 11:44 | 47.03167 | 3.02125 | 34496 ft | 389 kts | 171° |
| 2026-04-12 11:45 | 47.00555 | 3.03161 | 34711 ft | 389 kts | 171° |
| 2026-04-12 11:45 | 46.97938 | 3.04207 | 34913 ft | 390 kts | 171° |
| 2026-04-12 11:45 | 46.95316 | 3.05268 | 35056 ft | 392 kts | 171° |
| 2026-04-12 11:45 | 46.92681 | 3.06348 | 34946 ft | 395 kts | 170° |
| 2026-04-12 11:46 | 46.90024 | 3.07439 | 35086 ft | 398 kts | 169° |
| 2026-04-12 11:46 | 46.84623 | 3.09647 | 35087 ft | 406 kts | 169° |
| 2026-04-12 11:47 | 46.79162 | 3.11877 | 35094 ft | 408 kts | 169° |
| 2026-04-12 11:47 | 46.73739 | 3.14095 | 35092 ft | 407 kts | 169° |
| 2026-04-12 11:48 | 46.68280 | 3.16323 | 35104 ft | 407 kts | 169° |
| 2026-04-12 11:48 | 46.62827 | 3.18534 | 35105 ft | 407 kts | 169° |
| 2026-04-12 11:49 | 46.57374 | 3.20743 | 35112 ft | 407 kts | 170° |
| 2026-04-12 11:49 | 46.51917 | 3.22945 | 35075 ft | 407 kts | 169° |
| 2026-04-12 11:50 | 46.46499 | 3.25128 | 35091 ft | 407 kts | 169° |
| 2026-04-12 11:50 | 46.41043 | 3.27327 | 35100 ft | 407 kts | 169° |
| 2026-04-12 11:51 | 46.35592 | 3.29513 | 35104 ft | 406 kts | 169° |
| 2026-04-12 11:51 | 46.30145 | 3.31699 | 35092 ft | 406 kts | 169° |
| 2026-04-12 11:52 | 46.24701 | 3.33877 | 35096 ft | 406 kts | 169° |
| 2026-04-12 11:52 | 46.19264 | 3.36047 | 35095 ft | 405 kts | 169° |
| 2026-04-12 11:53 | 46.13867 | 3.38198 | 35105 ft | 405 kts | 169° |
| 2026-04-12 11:53 | 46.08439 | 3.40358 | 35087 ft | 405 kts | 169° |
| 2026-04-12 11:54 | 46.03012 | 3.42512 | 35092 ft | 405 kts | 169° |
| 2026-04-12 11:54 | 45.97583 | 3.44662 | 35093 ft | 404 kts | 169° |
| 2026-04-12 11:55 | 45.92158 | 3.46803 | 35105 ft | 404 kts | 169° |
| 2026-04-12 11:55 | 45.86766 | 3.49145 | 35087 ft | 408 kts | 161° |
| 2026-04-12 11:56 | 45.81828 | 3.53327 | 35094 ft | 415 kts | 152° |
| 2026-04-12 11:56 | 45.77039 | 3.57856 | 35089 ft | 415 kts | 153° |
| 2026-04-12 11:57 | 45.72217 | 3.62395 | 35086 ft | 415 kts | 153° |
| 2026-04-12 11:57 | 45.67401 | 3.66929 | 35068 ft | 415 kts | 152° |
| 2026-04-12 11:58 | 45.62572 | 3.71451 | 35073 ft | 415 kts | 152° |
| 2026-04-12 11:58 | 45.57745 | 3.75954 | 35074 ft | 415 kts | 152° |
| 2026-04-12 11:59 | 45.52918 | 3.80465 | 35085 ft | 415 kts | 153° |
| 2026-04-12 11:59 | 45.48119 | 3.84929 | 35068 ft | 414 kts | 152° |
| 2026-04-12 12:00 | 45.43294 | 3.89408 | 35059 ft | 413 kts | 152° |
| 2026-04-12 12:00 | 45.38491 | 3.93872 | 35063 ft | 414 kts | 150° |
| 2026-04-12 12:01 | 45.34349 | 3.99702 | 35065 ft | 428 kts | 132° |
| 2026-04-12 12:01 | 45.30873 | 4.06568 | 35041 ft | 428 kts | 132° |
| 2026-04-12 12:02 | 45.27385 | 4.13409 | 35045 ft | 427 kts | 132° |
| 2026-04-12 12:02 | 45.23918 | 4.20178 | 35048 ft | 427 kts | 133° |
| 2026-04-12 12:03 | 45.20416 | 4.26977 | 35021 ft | 427 kts | 132° |
| 2026-04-12 12:03 | 45.16925 | 4.33780 | 35025 ft | 427 kts | 132° |
| 2026-04-12 12:04 | 45.13425 | 4.40568 | 35023 ft | 426 kts | 133° |
| 2026-04-12 12:04 | 45.09856 | 4.47256 | 35012 ft | 424 kts | 135° |
| 2026-04-12 12:05 | 45.06049 | 4.53523 | 35009 ft | 421 kts | 137° |
| 2026-04-12 12:05 | 45.02136 | 4.59679 | 34986 ft | 421 kts | 137° |
| 2026-04-12 12:06 | 44.98253 | 4.65896 | 34997 ft | 422 kts | 136° |
| 2026-04-12 12:06 | 44.94411 | 4.72166 | 34978 ft | 423 kts | 136° |
| 2026-04-12 12:07 | 44.90562 | 4.78440 | 34991 ft | 423 kts | 136° |
| 2026-04-12 12:07 | 44.86701 | 4.84704 | 34980 ft | 423 kts | 136° |
| 2026-04-12 12:08 | 44.82858 | 4.90907 | 34984 ft | 423 kts | 136° |
| 2026-04-12 12:08 | 44.78990 | 4.97140 | 34966 ft | 423 kts | 136° |
| 2026-04-12 12:09 | 44.75115 | 5.03372 | 34978 ft | 423 kts | 136° |
| 2026-04-12 12:09 | 44.71235 | 5.09588 | 34980 ft | 423 kts | 136° |
| 2026-04-12 12:10 | 44.67355 | 5.15797 | 34982 ft | 423 kts | 136° |
| 2026-04-12 12:10 | 44.63494 | 5.21960 | 34963 ft | 423 kts | 136° |
| 2026-04-12 12:11 | 44.59610 | 5.28164 | 34961 ft | 423 kts | 136° |
| 2026-04-12 12:11 | 44.55721 | 5.34358 | 34924 ft | 423 kts | 136° |
| 2026-04-12 12:12 | 44.51824 | 5.40533 | 34930 ft | 423 kts | 136° |
| 2026-04-12 12:12 | 44.47919 | 5.46693 | 34927 ft | 423 kts | 136° |
| 2026-04-12 12:13 | 44.44043 | 5.52805 | 34923 ft | 422 kts | 136° |
| 2026-04-12 12:13 | 44.40147 | 5.58956 | 34926 ft | 422 kts | 136° |
| 2026-04-12 12:14 | 44.36506 | 5.65433 | 34919 ft | 427 kts | 129° |
| 2026-04-12 12:14 | 44.33189 | 5.72310 | 34894 ft | 427 kts | 129° |
| 2026-04-12 12:15 | 44.29852 | 5.79166 | 34887 ft | 427 kts | 129° |
| 2026-04-12 12:15 | 44.26509 | 5.86010 | 34884 ft | 427 kts | 129° |
| 2026-04-12 12:16 | 44.23193 | 5.92805 | 34893 ft | 426 kts | 129° |
| 2026-04-12 12:16 | 44.19852 | 5.99626 | 34898 ft | 426 kts | 129° |
| 2026-04-12 12:17 | 44.16506 | 6.06438 | 34897 ft | 426 kts | 129° |
| 2026-04-12 12:17 | 44.13163 | 6.13251 | 34874 ft | 427 kts | 129° |
| 2026-04-12 12:18 | 44.09804 | 6.20071 | 34875 ft | 427 kts | 129° |
| 2026-04-12 12:18 | 44.06461 | 6.26841 | 34873 ft | 427 kts | 129° |
| 2026-04-12 12:19 | 44.03091 | 6.33646 | 34861 ft | 428 kts | 129° |
| 2026-04-12 12:19 | 43.99711 | 6.40461 | 34877 ft | 428 kts | 129° |
| 2026-04-12 12:20 | 43.96329 | 6.47271 | 34874 ft | 429 kts | 129° |
| 2026-04-12 12:20 | 43.92937 | 6.54086 | 34873 ft | 429 kts | 129° |
| 2026-04-12 12:21 | 43.89552 | 6.60850 | 34884 ft | 430 kts | 129° |
| 2026-04-12 12:21 | 43.86135 | 6.67657 | 34885 ft | 430 kts | 129° |
| 2026-04-12 12:22 | 43.82723 | 6.74456 | 34873 ft | 430 kts | 129° |
| 2026-04-12 12:22 | 43.79306 | 6.81247 | 34882 ft | 430 kts | 129° |
| 2026-04-12 12:23 | 43.75884 | 6.88028 | 34871 ft | 430 kts | 129° |
| 2026-04-12 12:23 | 43.72334 | 6.94659 | 34873 ft | 426 kts | 136° |
| 2026-04-12 12:24 | 43.67837 | 6.99883 | 34874 ft | 422 kts | 146° |
| 2026-04-12 12:24 | 43.63153 | 7.04761 | 34875 ft | 422 kts | 146° |
| 2026-04-12 12:25 | 43.58507 | 7.09606 | 34878 ft | 421 kts | 146° |
| 2026-04-12 12:25 | 43.53832 | 7.14478 | 34880 ft | 421 kts | 146° |
| 2026-04-12 12:26 | 43.49157 | 7.19332 | 34880 ft | 420 kts | 146° |
| 2026-04-12 12:26 | 43.44484 | 7.24166 | 34877 ft | 420 kts | 146° |
| 2026-04-12 12:27 | 43.39810 | 7.28996 | 34868 ft | 420 kts | 146° |
| 2026-04-12 12:27 | 43.35130 | 7.33819 | 34864 ft | 420 kts | 146° |
| 2026-04-12 12:28 | 43.30481 | 7.38605 | 34864 ft | 421 kts | 146° |
| 2026-04-12 12:28 | 43.25798 | 7.43421 | 34862 ft | 421 kts | 146° |
| 2026-04-12 12:29 | 43.21110 | 7.48237 | 34863 ft | 421 kts | 146° |
| 2026-04-12 12:29 | 43.16417 | 7.53036 | 34856 ft | 421 kts | 146° |
| 2026-04-12 12:30 | 43.11697 | 7.57794 | 34854 ft | 420 kts | 150° |
| 2026-04-12 12:30 | 43.06435 | 7.61111 | 34845 ft | 417 kts | 161° |
| 2026-04-12 12:31 | 43.00985 | 7.63819 | 34846 ft | 417 kts | 161° |
| 2026-04-12 12:31 | 42.95570 | 7.66517 | 34852 ft | 417 kts | 161° |
| 2026-04-12 12:32 | 42.90116 | 7.69227 | 34850 ft | 417 kts | 161° |
| 2026-04-12 12:32 | 42.85580 | 7.71471 | 34851 ft | 417 kts | 161° |
| 2026-04-12 12:33 | 42.79203 | 7.74614 | 34848 ft | 417 kts | 161° |
| 2026-04-12 12:33 | 42.73744 | 7.77308 | 34848 ft | 417 kts | 161° |
| 2026-04-12 12:34 | 42.68321 | 7.79976 | 34846 ft | 417 kts | 161° |
| 2026-04-12 12:34 | 42.62861 | 7.82653 | 34847 ft | 417 kts | 161° |
| 2026-04-12 12:35 | 42.57395 | 7.85331 | 34846 ft | 417 kts | 161° |
| 2026-04-12 12:35 | 42.51934 | 7.88007 | 34847 ft | 417 kts | 161° |
| 2026-04-12 12:36 | 42.46468 | 7.90676 | 34843 ft | 417 kts | 161° |
| 2026-04-12 12:36 | 42.41008 | 7.93335 | 34841 ft | 417 kts | 161° |
| 2026-04-12 12:37 | 42.35586 | 7.95969 | 34842 ft | 417 kts | 161° |
| 2026-04-12 12:37 | 42.30511 | 7.99733 | 34829 ft | 420 kts | 143° |
| 2026-04-12 12:38 | 42.26392 | 8.05354 | 34302 ft | 422 kts | 135° |
| 2026-04-12 12:38 | 42.24416 | 8.08288 | 33363 ft | 424 kts | 135° |
| 2026-04-12 12:38 | 42.22420 | 8.11234 | 32318 ft | 427 kts | 135° |
| 2026-04-12 12:38 | 42.20400 | 8.14202 | 31255 ft | 431 kts | 135° |
| 2026-04-12 12:39 | 42.18364 | 8.17196 | 30179 ft | 435 kts | 135° |
| 2026-04-12 12:39 | 42.16307 | 8.20220 | 28947 ft | 440 kts | 135° |
| 2026-04-12 12:39 | 42.14230 | 8.23276 | 27647 ft | 444 kts | 135° |
| 2026-04-12 12:39 | 42.12133 | 8.26365 | 26329 ft | 449 kts | 135° |
| 2026-04-12 12:40 | 42.10016 | 8.29477 | 24996 ft | 453 kts | 134° |
| 2026-04-12 12:40 | 42.07907 | 8.32569 | 23702 ft | 457 kts | 134° |
| 2026-04-12 12:40 | 42.05762 | 8.35708 | 22665 ft | 452 kts | 134° |
| 2026-04-12 12:40 | 42.03650 | 8.38803 | 21736 ft | 446 kts | 134° |
| 2026-04-12 12:41 | 42.01565 | 8.41857 | 20876 ft | 440 kts | 134° |
| 2026-04-12 12:41 | 41.99508 | 8.44861 | 20046 ft | 434 kts | 134° |
| 2026-04-12 12:41 | 41.97477 | 8.47825 | 19259 ft | 428 kts | 134° |
| 2026-04-12 12:41 | 41.95471 | 8.50751 | 18495 ft | 423 kts | 134° |
| 2026-04-12 12:42 | 41.93486 | 8.53641 | 17722 ft | 418 kts | 134° |
| 2026-04-12 12:42 | 41.89585 | 8.59315 | 16186 ft | 408 kts | 134° |
| 2026-04-12 12:42 | 41.87709 | 8.62046 | 15985 ft | 384 kts | 134° |
| 2026-04-12 12:43 | 41.85970 | 8.64575 | 15787 ft | 353 kts | 134° |
| 2026-04-12 12:43 | 41.84897 | 8.66132 | 15699 ft | 334 kts | 134° |
| 2026-04-12 12:43 | 41.82913 | 8.69006 | 15496 ft | 302 kts | 134° |
| 2026-04-12 12:43 | 41.81512 | 8.71031 | 15030 ft | 292 kts | 134° |
| 2026-04-12 12:44 | 41.80144 | 8.73004 | 14445 ft | 287 kts | 134° |
| 2026-04-12 12:44 | 41.78790 | 8.74939 | 13865 ft | 282 kts | 137° |
| 2026-04-12 12:44 | 41.77254 | 8.76529 | 13213 ft | 278 kts | 149° |
| 2026-04-12 12:44 | 41.75494 | 8.77574 | 12520 ft | 277 kts | 162° |
| 2026-04-12 12:45 | 41.74249 | 8.77950 | 12069 ft | 277 kts | 171° |
| 2026-04-12 12:45 | 41.72336 | 8.78267 | 11374 ft | 276 kts | 172° |
| 2026-04-12 12:45 | 41.70431 | 8.78589 | 10702 ft | 275 kts | 172° |
| 2026-04-12 12:45 | 41.68537 | 8.78917 | 10059 ft | 274 kts | 172° |
| 2026-04-12 12:46 | 41.66652 | 8.79246 | 9380 ft | 272 kts | 172° |
| 2026-04-12 12:46 | 41.64779 | 8.79572 | 8699 ft | 270 kts | 172° |
| 2026-04-12 12:46 | 41.62926 | 8.79893 | 8026 ft | 267 kts | 173° |
| 2026-04-12 12:46 | 41.61113 | 8.80207 | 7422 ft | 261 kts | 173° |
| 2026-04-12 12:47 | 41.59322 | 8.80518 | 6747 ft | 259 kts | 173° |
| 2026-04-12 12:47 | 41.57524 | 8.80828 | 6000 ft | 262 kts | 173° |
| 2026-04-12 12:47 | 41.55728 | 8.81134 | 5383 ft | 260 kts | 173° |
| 2026-04-12 12:47 | 41.53959 | 8.81436 | 5130 ft | 252 kts | 174° |
| 2026-04-12 12:48 | 41.52250 | 8.81728 | 4886 ft | 244 kts | 174° |
| 2026-04-12 12:48 | 41.50619 | 8.82037 | 4643 ft | 237 kts | 168° |
| 2026-04-12 12:48 | 41.49109 | 8.82831 | 4392 ft | 232 kts | 152° |
| 2026-04-12 12:48 | 41.47753 | 8.83948 | 4138 ft | 226 kts | 151° |
| 2026-04-12 12:49 | 41.46444 | 8.85028 | 4008 ft | 216 kts | 151° |
| 2026-04-12 12:49 | 41.45207 | 8.86049 | 3980 ft | 201 kts | 150° |
| 2026-04-12 12:49 | 41.44065 | 8.86990 | 4021 ft | 185 kts | 151° |
| 2026-04-12 12:49 | 41.42965 | 8.87847 | 4004 ft | 181 kts | 159° |
| 2026-04-12 12:50 | 41.41844 | 8.88269 | 3891 ft | 160 kts | 168° |
| 2026-04-12 12:50 | 41.40777 | 8.88591 | 3565 ft | 153 kts | 167° |
| 2026-04-12 12:50 | 41.39770 | 8.88898 | 3331 ft | 143 kts | 167° |
| 2026-04-12 12:50 | 41.38939 | 8.89455 | 3147 ft | 133 kts | 139° |
| 2026-04-12 12:51 | 41.38496 | 8.90535 | 2942 ft | 138 kts | 106° |
| 2026-04-12 12:51 | 41.38587 | 8.91804 | 2759 ft | 139 kts | 79° |
| 2026-04-12 12:51 | 41.38845 | 8.93007 | 2564 ft | 136 kts | 81° |
| 2026-04-12 12:51 | 41.39096 | 8.94204 | 2396 ft | 132 kts | 84° |
| 2026-04-12 12:52 | 41.39338 | 8.95359 | 2211 ft | 130 kts | 81° |
| 2026-04-12 12:52 | 41.39577 | 8.96503 | 2048 ft | 126 kts | 80° |
| 2026-04-12 12:52 | 41.39810 | 8.97630 | 1875 ft | 126 kts | 79° |
| 2026-04-12 12:52 | 41.40042 | 8.98749 | 1708 ft | 125 kts | 79° |
| 2026-04-12 12:53 | 41.40372 | 8.99824 | 1560 ft | 127 kts | 64° |
| 2026-04-12 12:53 | 41.40999 | 9.00684 | 1493 ft | 133 kts | 44° |
| 2026-04-12 12:53 | 41.41795 | 9.01338 | 1496 ft | 135 kts | 41° |
| 2026-04-12 12:53 | 41.42596 | 9.02003 | 1503 ft | 136 kts | 41° |
| 2026-04-12 12:54 | 41.43395 | 9.02665 | 1498 ft | 135 kts | 40° |
| 2026-04-12 12:54 | 41.44179 | 9.03321 | 1394 ft | 135 kts | 41° |
| 2026-04-12 12:54 | 41.44973 | 9.03981 | 1198 ft | 135 kts | 39° |
| 2026-04-12 12:54 | 41.45762 | 9.04636 | 1013 ft | 133 kts | 39° |
| 2026-04-12 12:55 | 41.46535 | 9.05300 | 825 ft | 132 kts | 42° |
| 2026-04-12 12:55 | 41.47278 | 9.05984 | 649 ft | 130 kts | 41° |
| 2026-04-12 12:55 | 41.48002 | 9.06690 | 516 ft | 129 kts | 44° |
| 2026-04-12 12:55 | 41.48665 | 9.07456 | 380 ft | 124 kts | 47° |
| 2026-04-12 12:56 | 41.49251 | 9.08291 | 183 ft | 125 kts | 47° |
| 2026-04-12 12:56 | 41.49830 | 9.09125 | 71 ft | 111 kts | 48° |
| 2026-04-12 12:56 | 41.50234 | 9.09711 | 68 ft | 60 kts | 47° |
| 2026-04-12 12:56 | 41.50378 | 9.09919 | 69 ft | 12 kts | 47° |
| 2026-04-12 12:57 | 41.50431 | 9.10000 | 77 ft | 15 kts | 49° |
| 2026-04-12 12:57 | 41.50480 | 9.10125 | 80 ft | 14 kts | 78° |
| 2026-04-12 12:57 | 41.50522 | 9.10153 | 82 ft | 8 kts | 301° |
| 2026-04-12 12:57 | 41.50480 | 9.10065 | 85 ft | 19 kts | 228° |
| 2026-04-12 12:58 | 41.50355 | 9.09885 | 69 ft | 30 kts | 227° |
| 2026-04-12 12:58 | 41.50238 | 9.09714 | 68 ft | 15 kts | 227° |
| 2026-04-12 12:58 | 41.50180 | 9.09701 | 71 ft | 8 kts | 133° |
| 2026-04-12 12:58 | 41.50144 | 9.09753 | 69 ft | 8 kts | 133° |
| 2026-04-12 12:59 | 41.50094 | 9.09809 | 67 ft | 9 kts | 158° |
| 2026-04-12 12:59 | 41.50038 | 9.09789 | 69 ft | 7 kts | 186° |
| 2026-04-12 12:59 | 41.49999 | 9.09821 | 70 ft | 6 kts | 135° |
| 2026-04-12 12:59 | 41.49994 | 9.09829 | 71 ft | 0 kts | 135° |